createdAt,value
2018-04-29T00:01:32.231Z,11.70
2018-04-29T00:04:05.931Z,11.50
2018-04-29T00:06:39.513Z,11.50
2018-04-29T00:09:13.112Z,11.60
2018-04-29T00:11:46.619Z,11.60
2018-04-29T00:14:20.942Z,11.40
2018-04-29T00:16:54.664Z,11.40
2018-04-29T00:19:28.218Z,11.40
2018-04-29T00:22:01.827Z,11.40
2018-04-29T00:24:35.441Z,11.50
2018-04-29T00:27:08.981Z,11.50
2018-04-29T00:29:42.594Z,11.40
2018-04-29T00:32:16.430Z,11.30
2018-04-29T00:34:50.050Z,11.30
2018-04-29T00:37:23.641Z,11.30
2018-04-29T00:39:57.271Z,11.50
2018-04-29T00:42:31.030Z,11.40
2018-04-29T00:45:04.578Z,11.50
2018-04-29T00:47:38.247Z,11.60
2018-04-29T00:50:11.864Z,11.70
2018-04-29T00:52:45.424Z,11.80
2018-04-29T00:55:19.045Z,11.80
2018-04-29T00:57:52.669Z,11.70
2018-04-29T01:00:26.288Z,11.60
2018-04-29T01:02:59.847Z,11.50
2018-04-29T01:05:33.469Z,11.40
2018-04-29T01:08:07.047Z,11.30
2018-04-29T01:10:40.576Z,11.30
2018-04-29T01:13:14.133Z,11.30
2018-04-29T01:15:47.881Z,11.10
2018-04-29T01:18:21.451Z,11.20
2018-04-29T01:20:55.064Z,11.20
2018-04-29T01:23:28.654Z,11.00
2018-04-29T01:26:02.239Z,11.00
2018-04-29T01:28:35.850Z,11.00
2018-04-29T01:31:10.178Z,11.00
2018-04-29T01:33:43.839Z,11.00
2018-04-29T01:36:17.362Z,11.00
2018-04-29T01:38:50.982Z,10.90
2018-04-29T01:41:24.517Z,10.90
2018-04-29T01:43:58.058Z,10.90
2018-04-29T01:46:31.652Z,10.80
2018-04-29T01:49:05.235Z,10.80
2018-04-29T01:51:38.809Z,10.90
2018-04-29T01:54:12.308Z,10.90
2018-04-29T01:56:45.874Z,10.90
2018-04-29T01:59:20.162Z,10.80
2018-04-29T02:01:53.929Z,10.70
2018-04-29T02:04:27.484Z,10.80
2018-04-29T02:07:01.061Z,10.80
2018-04-29T02:09:34.683Z,10.70
2018-04-29T02:12:08.303Z,10.50
2018-04-29T02:14:41.920Z,10.30
2018-04-29T02:17:15.442Z,10.50
2018-04-29T02:19:48.969Z,10.80
2018-04-29T02:22:22.602Z,11.00
2018-04-29T02:24:56.217Z,11.20
2018-04-29T02:27:29.791Z,11.40
2018-04-29T02:30:03.389Z,11.50
2018-04-29T02:32:37.787Z,11.50
2018-04-29T02:35:12.254Z,11.40
2018-04-29T02:37:46.765Z,11.40
2018-04-29T02:40:20.307Z,11.40
2018-04-29T02:42:53.798Z,11.50
2018-04-29T02:45:27.354Z,11.50
2018-04-29T02:48:01.680Z,11.30
2018-04-29T02:50:36.297Z,11.30
2018-04-29T02:53:10.089Z,11.30
2018-04-29T02:55:43.640Z,11.30
2018-04-29T02:58:18.116Z,11.10
2018-04-29T03:00:51.632Z,11.10
2018-04-29T03:03:25.190Z,11.10
2018-04-29T03:05:58.912Z,11.10
2018-04-29T03:08:33.228Z,11.10
2018-04-29T03:11:06.925Z,11.10
2018-04-29T03:13:40.633Z,11.10
2018-04-29T03:16:14.237Z,11.10
2018-04-29T03:18:48.586Z,10.90
2018-04-29T03:21:23.009Z,10.90
2018-04-29T03:23:57.416Z,10.90
2018-04-29T03:26:31.824Z,11.00
2018-04-29T03:29:06.354Z,11.00
2018-04-29T03:31:40.072Z,11.00
2018-04-29T03:34:13.649Z,11.10
2018-04-29T03:36:47.226Z,11.00
2018-04-29T03:39:20.853Z,11.00
2018-04-29T03:41:54.488Z,10.90
2018-04-29T03:44:28.082Z,10.80
2018-04-29T03:47:01.627Z,10.80
2018-04-29T03:49:35.192Z,10.70
2018-04-29T03:52:08.805Z,10.60
2018-04-29T03:54:42.362Z,10.60
2018-04-29T03:57:27.825Z,10.60
2018-04-29T04:00:13.218Z,10.60
2018-04-29T04:02:58.767Z,10.50
2018-04-29T04:05:32.392Z,10.40
2018-04-29T04:08:06.457Z,10.30
2018-04-29T04:10:40.821Z,10.30
2018-04-29T04:13:14.577Z,10.20
2018-04-29T04:15:48.113Z,10.30
2018-04-29T04:18:21.734Z,10.30
2018-04-29T04:20:55.286Z,10.20
2018-04-29T04:23:28.837Z,10.10
2018-04-29T04:26:02.428Z,10.10
2018-04-29T04:28:36.006Z,10.10
2018-04-29T04:31:10.311Z,10.10
2018-04-29T04:33:43.877Z,10.10
2018-04-29T04:36:17.444Z,10.10
2018-04-29T04:38:51.021Z,10.00
2018-04-29T04:41:24.693Z,10.00
2018-04-29T04:43:58.271Z,9.90
2018-04-29T04:46:31.964Z,9.90
2018-04-29T04:49:05.488Z,10.00
2018-04-29T04:51:39.073Z,10.10
2018-04-29T04:54:12.563Z,10.00
2018-04-29T04:56:46.151Z,10.10
2018-04-29T04:59:19.774Z,10.10
2018-04-29T05:01:53.348Z,10.30
2018-04-29T05:04:26.854Z,10.40
2018-04-29T05:07:00.455Z,10.50
2018-04-29T05:09:34.047Z,10.50
2018-04-29T05:12:07.616Z,10.60
2018-04-29T05:14:41.260Z,10.70
2018-04-29T05:17:14.858Z,10.80
2018-04-29T05:19:48.449Z,11.00
2018-04-29T05:22:21.993Z,11.10
2018-04-29T05:24:55.526Z,11.30
2018-04-29T05:27:29.941Z,11.50
2018-04-29T05:30:03.509Z,11.40
2018-04-29T05:32:37.076Z,11.60
2018-04-29T05:35:10.564Z,11.70
2018-04-29T05:37:44.124Z,11.80
2018-04-29T05:40:18.408Z,12.10
2018-04-29T05:42:52.117Z,12.10
2018-04-29T05:45:25.639Z,12.30
2018-04-29T05:47:59.199Z,12.40
2018-04-29T05:50:32.795Z,12.10
2018-04-29T05:53:06.359Z,11.90
2018-04-29T05:55:39.930Z,11.70
2018-04-29T05:58:13.481Z,11.80
2018-04-29T06:00:47.005Z,11.80
2018-04-29T06:03:20.594Z,12.00
2018-04-29T06:05:54.190Z,12.30
2018-04-29T06:08:27.782Z,12.30
2018-04-29T06:11:01.385Z,12.50
2018-04-29T06:13:35.715Z,12.90
2018-04-29T06:16:09.416Z,12.90
2018-04-29T06:18:43.036Z,13.10
2018-04-29T06:21:16.562Z,13.20
2018-04-29T06:23:50.216Z,13.30
2018-04-29T06:26:25.349Z,13.60
2018-04-29T06:28:59.092Z,13.60
2018-04-29T06:31:32.632Z,13.80
2018-04-29T06:34:06.261Z,13.60
2018-04-29T06:36:39.792Z,13.70
2018-04-29T06:39:13.330Z,13.90
2018-04-29T06:41:46.893Z,14.10
2018-04-29T06:44:20.544Z,14.20
2018-04-29T06:46:54.939Z,14.00
2018-04-29T06:49:28.662Z,13.90
2018-04-29T06:52:02.994Z,14.40
2018-04-29T06:54:36.701Z,14.40
2018-04-29T06:57:10.308Z,14.60
2018-04-29T06:59:43.916Z,14.80
2018-04-29T07:02:17.558Z,14.90
2018-04-29T07:04:51.291Z,15.00
2018-04-29T07:07:25.399Z,15.20
2018-04-29T07:09:59.022Z,15.20
2018-04-29T07:12:32.606Z,14.90
2018-04-29T07:15:06.156Z,15.10
2018-04-29T07:17:39.779Z,15.30
2018-04-29T07:20:13.517Z,15.50
2018-04-29T07:22:47.069Z,15.60
2018-04-29T07:25:20.720Z,15.20
2018-04-29T07:27:54.323Z,15.40
2018-04-29T07:30:27.933Z,15.60
2018-04-29T07:33:01.502Z,15.90
2018-04-29T07:35:35.124Z,16.30
2018-04-29T07:38:08.671Z,16.10
2018-04-29T07:40:42.332Z,16.40
2018-04-29T07:43:15.942Z,16.70
2018-04-29T07:45:50.257Z,16.90
2018-04-29T07:48:23.963Z,16.80
2018-04-29T07:50:57.553Z,17.10
2018-04-29T07:53:31.834Z,17.60
2018-04-29T07:56:05.510Z,17.60
2018-04-29T07:58:39.086Z,17.80
2018-04-29T08:01:12.688Z,17.80
2018-04-29T08:03:46.536Z,17.90
2018-04-29T08:06:20.072Z,17.90
2018-04-29T08:08:54.423Z,17.80
2018-04-29T08:11:28.035Z,17.80
2018-04-29T08:14:01.624Z,17.90
2018-04-29T08:16:35.190Z,17.90
2018-04-29T08:19:09.535Z,18.30
2018-04-29T08:21:43.205Z,18.40
2018-04-29T08:24:16.854Z,18.50
2018-04-29T08:26:50.390Z,18.70
2018-04-29T08:29:23.902Z,18.90
2018-04-29T08:31:57.448Z,19.00
2018-04-29T08:34:30.975Z,19.20
2018-04-29T08:37:04.512Z,19.30
2018-04-29T08:39:38.838Z,19.70
2018-04-29T08:42:12.422Z,19.70
2018-04-29T08:44:46.003Z,19.70
2018-04-29T08:47:19.501Z,19.60
2018-04-29T08:49:53.016Z,19.10
2018-04-29T08:52:26.555Z,19.10
2018-04-29T08:55:00.113Z,19.20
2018-04-29T08:57:34.470Z,19.70
2018-04-29T09:00:08.142Z,19.70
2018-04-29T09:02:41.754Z,19.90
2018-04-29T09:05:18.988Z,20.00
2018-04-29T09:07:52.757Z,20.10
2018-04-29T09:10:26.257Z,20.20
2018-04-29T09:12:59.838Z,20.30
2018-04-29T09:15:33.440Z,20.40
2018-04-29T09:18:07.790Z,20.70
2018-04-29T09:20:41.377Z,20.70
2018-04-29T09:23:14.957Z,20.80
2018-04-29T09:25:48.633Z,20.80
2018-04-29T09:28:22.388Z,20.90
2018-04-29T09:30:56.684Z,21.00
2018-04-29T09:33:30.440Z,21.00
2018-04-29T09:36:03.992Z,21.10
2018-04-29T09:38:37.564Z,21.20
2018-04-29T09:41:11.115Z,21.20
2018-04-29T09:43:44.788Z,21.30
2018-04-29T09:46:18.289Z,21.50
2018-04-29T09:48:51.906Z,21.50
2018-04-29T09:51:25.555Z,21.60
2018-04-29T09:53:59.104Z,21.60
2018-04-29T09:56:32.895Z,21.70
2018-04-29T09:59:06.445Z,21.80
2018-04-29T10:01:40.030Z,21.90
2018-04-29T10:04:13.625Z,22.00
2018-04-29T10:06:47.275Z,22.10
2018-04-29T10:09:20.989Z,22.40
2018-04-29T10:11:54.645Z,22.40
2018-04-29T10:14:28.217Z,22.60
2018-04-29T10:17:01.797Z,22.70
2018-04-29T10:19:35.551Z,23.00
2018-04-29T10:22:09.920Z,23.40
2018-04-29T10:24:43.693Z,23.30
2018-04-29T10:27:17.235Z,23.60
2018-04-29T10:29:50.820Z,23.80
2018-04-29T10:32:24.510Z,24.00
2018-04-29T10:34:58.069Z,24.10
2018-04-29T10:37:31.764Z,24.20
2018-04-29T10:40:05.336Z,24.20
2018-04-29T10:42:38.945Z,24.10
2018-04-29T10:45:12.552Z,24.20
2018-04-29T10:47:46.175Z,24.00
2018-04-29T10:50:19.857Z,24.10
2018-04-29T10:52:53.523Z,24.20
2018-04-29T10:55:27.132Z,24.10
2018-04-29T10:58:01.568Z,24.10
2018-04-29T11:00:35.079Z,24.10
2018-04-29T11:03:08.841Z,24.30
2018-04-29T11:05:43.215Z,24.50
2018-04-29T11:08:17.706Z,24.50
2018-04-29T11:10:51.338Z,24.50
2018-04-29T11:13:24.897Z,24.50
2018-04-29T11:15:58.551Z,24.50
2018-04-29T11:18:32.823Z,24.60
2018-04-29T11:21:07.150Z,24.80
2018-04-29T11:23:41.473Z,25.00
2018-04-29T11:26:15.055Z,25.00
2018-04-29T11:28:49.480Z,25.30
2018-04-29T11:31:23.073Z,25.30
2018-04-29T11:33:56.740Z,25.10
2018-04-29T11:36:30.285Z,25.20
2018-04-29T11:39:03.968Z,25.20
2018-04-29T11:41:38.407Z,25.50
2018-04-29T11:44:12.004Z,25.50
2018-04-29T11:46:45.592Z,25.50
2018-04-29T11:49:19.260Z,25.60
2018-04-29T11:51:53.634Z,25.50
2018-04-29T11:54:27.310Z,25.50
2018-04-29T11:57:00.860Z,25.50
2018-04-29T11:59:35.364Z,25.80
2018-04-29T12:02:09.861Z,25.80
2018-04-29T12:04:43.589Z,25.80
2018-04-29T12:07:17.228Z,25.90
2018-04-29T12:09:51.721Z,26.10
2018-04-29T12:12:25.224Z,26.10
2018-04-29T12:14:58.956Z,26.10
2018-04-29T12:17:32.503Z,26.10
2018-04-29T12:20:06.047Z,26.10
2018-04-29T12:22:39.596Z,26.10
2018-04-29T12:25:13.936Z,26.30
2018-04-29T12:27:47.457Z,26.20
2018-04-29T12:30:21.014Z,26.20
2018-04-29T12:32:54.537Z,26.20
2018-04-29T12:35:28.307Z,26.20
2018-04-29T12:38:02.632Z,26.20
2018-04-29T12:40:36.239Z,26.20
2018-04-29T12:43:10.652Z,26.50
2018-04-29T12:45:44.369Z,26.50
2018-04-29T12:48:17.956Z,26.50
2018-04-29T12:50:51.558Z,26.50
2018-04-29T12:53:25.180Z,26.30
2018-04-29T12:55:58.890Z,26.40
2018-04-29T12:58:32.468Z,26.60
2018-04-29T13:01:06.053Z,26.60
2018-04-29T13:03:40.490Z,26.10
2018-04-29T13:06:14.074Z,26.10
2018-04-29T13:08:47.809Z,26.40
2018-04-29T13:11:21.485Z,26.50
2018-04-29T13:13:55.213Z,26.40
2018-04-29T13:16:28.906Z,26.60
2018-04-29T13:19:03.313Z,26.40
2018-04-29T13:21:37.857Z,26.60
2018-04-29T13:24:11.579Z,26.60
2018-04-29T13:26:45.265Z,26.30
2018-04-29T13:29:19.000Z,26.30
2018-04-29T13:31:52.557Z,26.30
2018-04-29T13:34:26.151Z,25.90
2018-04-29T13:36:59.835Z,25.60
2018-04-29T13:39:33.531Z,25.70
2018-04-29T13:42:07.240Z,25.60
2018-04-29T13:44:41.678Z,25.50
2018-04-29T13:47:15.222Z,25.50
2018-04-29T13:49:49.699Z,25.40
2018-04-29T13:52:23.363Z,25.30
2018-04-29T13:54:56.929Z,25.60
2018-04-29T13:57:30.585Z,26.00
2018-04-29T14:00:04.165Z,26.50
2018-04-29T14:02:37.818Z,26.80
2018-04-29T14:05:11.538Z,27.10
2018-04-29T14:07:45.203Z,26.80
2018-04-29T14:10:18.789Z,26.40
2018-04-29T14:12:53.215Z,25.60
2018-04-29T14:15:26.814Z,25.50
2018-04-29T14:18:00.407Z,25.50
2018-04-29T14:20:34.048Z,26.10
2018-04-29T14:23:07.757Z,26.20
2018-04-29T14:25:41.616Z,26.40
2018-04-29T14:28:16.204Z,27.10
2018-04-29T14:30:49.819Z,27.10
2018-04-29T14:33:23.629Z,27.00
2018-04-29T14:35:57.392Z,26.90
2018-04-29T14:38:31.141Z,26.90
2018-04-29T14:41:04.887Z,25.90
2018-04-29T14:43:38.649Z,25.90
2018-04-29T14:46:12.278Z,26.00
2018-04-29T14:48:45.971Z,26.40
2018-04-29T14:51:20.532Z,26.70
2018-04-29T14:53:54.108Z,26.60
2018-04-29T14:56:27.627Z,26.90
2018-04-29T14:59:01.235Z,26.60
2018-04-29T15:01:34.819Z,26.00
2018-04-29T15:04:08.455Z,26.50
2018-04-29T15:06:42.129Z,26.70
2018-04-29T15:09:15.713Z,27.00
2018-04-29T15:11:49.347Z,27.10
2018-04-29T15:14:22.926Z,26.90
2018-04-29T15:16:56.518Z,26.60
2018-04-29T15:19:41.932Z,26.10
2018-04-29T15:22:15.531Z,26.00
2018-04-29T15:24:49.233Z,26.00
2018-04-29T15:27:23.717Z,26.30
2018-04-29T15:29:57.327Z,26.30
2018-04-29T15:32:30.811Z,26.50
2018-04-29T15:35:04.431Z,26.50
2018-04-29T15:37:38.742Z,26.60
2018-04-29T15:40:13.056Z,26.70
2018-04-29T15:42:47.575Z,26.80
2018-04-29T15:45:21.251Z,26.80
2018-04-29T15:47:54.943Z,26.60
2018-04-29T15:50:29.405Z,26.80
2018-04-29T15:53:03.033Z,26.80
2018-04-29T15:55:36.704Z,26.90
2018-04-29T15:58:11.359Z,26.70
2018-04-29T16:00:44.848Z,26.70
2018-04-29T16:03:18.449Z,27.00
2018-04-29T16:05:52.049Z,27.00
2018-04-29T16:08:25.633Z,26.80
2018-04-29T16:11:00.092Z,26.90
2018-04-29T16:13:33.652Z,26.90
2018-04-29T16:16:08.177Z,26.70
2018-04-29T16:18:41.773Z,26.60
2018-04-29T16:21:15.447Z,26.30
2018-04-29T16:23:49.178Z,26.20
2018-04-29T16:26:22.712Z,25.80
2018-04-29T16:28:56.367Z,25.40
2018-04-29T16:31:30.115Z,25.10
2018-04-29T16:34:03.750Z,25.00
2018-04-29T16:36:37.280Z,25.50
2018-04-29T16:39:10.895Z,25.30
2018-04-29T16:41:44.732Z,25.80
2018-04-29T16:44:19.224Z,26.60
2018-04-29T16:46:52.825Z,26.60
2018-04-29T16:49:26.384Z,26.50
2018-04-29T16:51:59.936Z,26.40
2018-04-29T16:54:33.627Z,27.10
2018-04-29T16:57:07.335Z,27.80
2018-04-29T16:59:40.904Z,28.50
2018-04-29T17:02:14.428Z,29.10
2018-04-29T17:04:48.136Z,29.00
2018-04-29T17:07:21.663Z,27.80
2018-04-29T17:09:55.345Z,27.40
2018-04-29T17:12:28.920Z,27.00
2018-04-29T17:15:02.533Z,26.30
2018-04-29T17:17:36.157Z,26.30
2018-04-29T17:20:09.719Z,26.60
2018-04-29T17:22:43.266Z,27.00
2018-04-29T17:25:16.856Z,27.40
2018-04-29T17:27:50.503Z,27.50
2018-04-29T17:30:24.239Z,26.10
2018-04-29T17:32:58.750Z,25.20
2018-04-29T17:35:32.264Z,25.20
2018-04-29T17:38:05.848Z,25.00
2018-04-29T17:40:39.430Z,24.30
2018-04-29T17:43:13.164Z,24.40
2018-04-29T17:45:46.733Z,24.10
2018-04-29T17:48:20.347Z,24.10
2018-04-29T17:50:53.985Z,24.20
2018-04-29T17:53:27.536Z,24.00
2018-04-29T17:56:01.210Z,23.50
2018-04-29T17:58:34.706Z,23.30
2018-04-29T18:01:08.329Z,23.00
2018-04-29T18:03:41.949Z,22.90
2018-04-29T18:06:15.624Z,22.80
2018-04-29T18:08:49.284Z,22.70
2018-04-29T18:11:22.883Z,22.70
2018-04-29T18:13:56.584Z,22.50
2018-04-29T18:16:31.081Z,22.30
2018-04-29T18:19:04.835Z,22.30
2018-04-29T18:21:38.404Z,22.40
2018-04-29T18:24:11.989Z,22.30
2018-04-29T18:26:45.682Z,22.20
2018-04-29T18:29:19.274Z,22.10
2018-04-29T18:31:53.807Z,22.00
2018-04-29T18:34:28.230Z,21.80
2018-04-29T18:37:01.856Z,21.80
2018-04-29T18:39:35.416Z,21.80
2018-04-29T18:42:09.171Z,21.90
2018-04-29T18:44:42.773Z,21.90
2018-04-29T18:47:16.381Z,21.80
2018-04-29T18:49:50.039Z,21.80
2018-04-29T18:52:23.791Z,21.60
2018-04-29T18:54:57.343Z,21.60
2018-04-29T18:57:30.946Z,21.50
2018-04-29T19:00:04.522Z,21.60
2018-04-29T19:02:38.131Z,21.70
2018-04-29T19:05:11.917Z,21.60
2018-04-29T19:07:46.385Z,21.60
2018-04-29T19:10:20.096Z,21.60
2018-04-29T19:12:53.666Z,21.60
2018-04-29T19:15:27.156Z,21.50
2018-04-29T19:18:00.769Z,21.50
2018-04-29T19:20:34.291Z,21.40
2018-04-29T19:23:07.868Z,21.20
2018-04-29T19:25:41.564Z,21.20
2018-04-29T19:28:15.187Z,21.20
2018-04-29T19:30:48.708Z,21.30
2018-04-29T19:33:22.271Z,21.00
2018-04-29T19:35:55.902Z,21.00
2018-04-29T19:38:29.530Z,21.10
2018-04-29T19:41:03.016Z,20.90
2018-04-29T19:43:36.598Z,20.90
2018-04-29T19:46:11.018Z,20.50
2018-04-29T19:48:44.596Z,20.50
2018-04-29T19:51:18.916Z,20.50
2018-04-29T19:53:52.446Z,20.50
2018-04-29T19:56:25.960Z,20.10
2018-04-29T19:58:59.509Z,20.20
2018-04-29T20:01:33.115Z,20.20
2018-04-29T20:04:06.703Z,20.00
2018-04-29T20:06:40.263Z,20.00
2018-04-29T20:09:13.799Z,20.00
2018-04-29T20:11:48.132Z,19.30
2018-04-29T20:14:21.715Z,19.30
2018-04-29T20:16:55.291Z,19.30
2018-04-29T20:19:28.805Z,19.30
2018-04-29T20:22:02.355Z,19.30
2018-04-29T20:24:35.924Z,19.20
2018-04-29T20:27:09.424Z,19.20
2018-04-29T20:29:43.044Z,19.10
2018-04-29T20:32:29.209Z,18.70
2018-04-29T20:35:02.842Z,18.60
2018-04-29T20:37:36.541Z,18.60
2018-04-29T20:40:10.099Z,18.60
2018-04-29T20:42:43.650Z,18.70
2018-04-29T20:45:17.261Z,18.70
2018-04-29T20:47:50.809Z,18.80
2018-04-29T20:50:24.549Z,18.80
2018-04-29T20:52:58.854Z,18.10
2018-04-29T20:55:33.292Z,18.20
2018-04-29T20:58:08.495Z,18.20
2018-04-29T21:00:42.857Z,17.90
2018-04-29T21:03:16.503Z,17.90
2018-04-29T21:05:50.121Z,18.00
2018-04-29T21:08:23.664Z,17.80
2018-04-29T21:10:57.234Z,17.80
2018-04-29T21:13:30.890Z,16.60
2018-04-29T21:16:04.408Z,16.00
2018-04-29T21:18:38.041Z,15.40
2018-04-29T21:21:11.599Z,15.80
2018-04-29T21:23:45.229Z,16.10
2018-04-29T21:26:19.550Z,16.30
2018-04-29T21:28:53.261Z,16.30
2018-04-29T21:31:26.842Z,16.40
2018-04-29T21:34:00.366Z,16.60
2018-04-29T21:36:33.887Z,16.70
2018-04-29T21:39:07.568Z,16.10
2018-04-29T21:41:41.134Z,16.10
2018-04-29T21:44:14.760Z,15.20
2018-04-29T21:46:48.351Z,15.40
2018-04-29T21:49:21.936Z,15.70
2018-04-29T21:51:55.572Z,15.20
2018-04-29T21:54:29.192Z,15.60
2018-04-29T21:57:02.717Z,15.80
2018-04-29T21:59:36.257Z,16.00
2018-04-29T22:02:09.773Z,16.10
2018-04-29T22:04:44.054Z,16.20
2018-04-29T22:07:17.664Z,16.10
2018-04-29T22:09:51.376Z,16.20
2018-04-29T22:12:24.969Z,15.70
2018-04-29T22:14:58.504Z,15.50
2018-04-29T22:17:32.072Z,15.20
2018-04-29T22:20:05.677Z,15.30
2018-04-29T22:22:39.264Z,15.00
2018-04-29T22:25:12.860Z,15.00
2018-04-29T22:27:47.137Z,13.90
2018-04-29T22:30:20.785Z,13.90
2018-04-29T22:32:54.364Z,14.50
2018-04-29T22:35:28.004Z,13.80
2018-04-29T22:38:01.518Z,14.30
2018-04-29T22:40:35.081Z,14.60
2018-04-29T22:43:08.665Z,14.90
2018-04-29T22:45:42.225Z,14.90
2018-04-29T22:48:15.803Z,15.10
2018-04-29T22:50:49.388Z,14.10
2018-04-29T22:53:23.168Z,14.40
2018-04-29T22:55:56.705Z,14.70
2018-04-29T22:58:30.301Z,15.00
2018-04-29T23:01:03.866Z,15.00
2018-04-29T23:03:37.524Z,15.00
2018-04-29T23:06:11.108Z,15.00
2018-04-29T23:08:44.716Z,15.10
2018-04-29T23:11:18.277Z,15.30
2018-04-29T23:13:51.844Z,15.50
2018-04-29T23:16:25.495Z,15.70
2018-04-29T23:18:59.104Z,15.70
2018-04-29T23:21:32.629Z,15.70
2018-04-29T23:24:06.180Z,15.40
2018-04-29T23:26:39.693Z,15.00
2018-04-29T23:29:13.267Z,15.10
2018-04-29T23:31:46.862Z,15.20
2018-04-29T23:34:20.413Z,15.20
2018-04-29T23:36:53.930Z,15.40
2018-04-29T23:39:27.537Z,15.50
2018-04-29T23:42:01.905Z,15.10
2018-04-29T23:44:35.636Z,15.10
2018-04-29T23:47:09.191Z,15.10
2018-04-29T23:49:42.787Z,15.30
2018-04-29T23:52:16.417Z,15.20
2018-04-29T23:54:50.006Z,15.20
2018-04-29T23:57:23.591Z,15.20
2018-04-29T23:59:57.118Z,15.20
